Pagrindinis puslapis
METAR-TAF:

METAR-TAF

Oro uostai :

Liuleo, Švedija

platuma: 65-33N, ilguma: 022-08E, Aukštis: 17 m

Dabartinis oras

Ataskaita buvo paskelbta 34 minutes, ne 09:50 UTC
Vėjas 3 kt iš Šiaurės, svyruoja nuo Šiaurės Vakarų ir Šiaurės/Šiaurės Rytų
Temperatūra -6°C
Drėgmė 93%
Slėgis 1003 hPa
Matomumas: 5000 m
Mažai debesys ne aukštis 600 ft
Su prošvaistėmis ne aukštis 2500 ft
sniegas

METAR: ESPA 070950Z 01003KT 320V030 5000 -SN FEW006 BKN025 M06/M07 Q1003

Laikas: 11:24 (10:24 UTC)

Prognozė

Ataskaita buvo paskelbta 1 valandą ir 54 minutes, ne 08:30 UTC
Prognozė galioja nuo 07 metu 09 UTC su 07 metu 18 UTC
Vėjas 5 kt iš Šiaurės
Matomumas 10 km arba daugiau
Su prošvaistėmis ne aukštis 3000 ft
Laikinai
nuo 07 metu 09 UTC su 07 metu 18 UTC
Matomumas: 3000 m
ne aukštis 1400 ft
sniegas

TAF: ESPA 070830Z 0709/0718 36005KT 9999 BKN030 TEMPO 0709/0718 3000 SN VV014 RMK MIL

Orai ataskaitas ir orų prognozės (METAR, TAF).

turimą stotys yra geltonos ir raudonos taškus žemėlapyje.

Perkelti pele per norėdami pamatyti stoties vardą.

Tada spustelėkite, norėdami matyti oro stebėjimo ir prognozės.

Norėdami pakeisti žemėlapį: spustelėkite ant žalios mygtukų su juodo kryžiaus žemyn,; žalią mygtuką su brūkšneliu, jei norite nutolinti; arba žalių rodyklių gretimoms žemėlapius.


METAR-TAF: